Time;durP1;ratioP1;P1;durP2;ratioP2;P2;SDS_P1;SDS_P2;PMS_P1;PMS_P2;Temp;Humidity;BMP_temperature;BMP_pressure;BME280_temperature;BME280_humidity;BME280_pressure;Samples;Min_cycle;Max_cycle;Signal;HPM_P1;HPM_P2
2021/11/24 00:01:03;;;;;;;17.53;13.07;;;5.90;99.90;;;6.79;100.00;101204.31;4994590;28;20214;-64
2021/11/24 00:03:32;;;;;;;16.13;12.53;;;5.90;99.90;;;6.72;100.00;101195.28;4994792;28;20210;-63
2021/11/24 00:06:00;;;;;;;18.63;13.90;;;5.90;99.90;;;6.67;100.00;101203.00;4994317;28;20738;-64
2021/11/24 00:08:28;;;;;;;17.30;12.50;;;5.90;99.90;;;6.69;100.00;101197.47;4994670;28;20210;-64
2021/11/24 00:10:56;;;;;;;17.97;13.60;;;5.90;99.90;;;6.69;100.00;101201.00;4994686;28;20293;-64
2021/11/24 00:13:25;;;;;;;17.97;12.87;;;5.90;99.90;;;6.60;100.00;101201.16;4994570;28;20291;-63
2021/11/24 00:15:54;;;;;;;17.57;13.43;;;5.90;99.90;;;6.65;100.00;101196.13;4994746;28;20283;-63
2021/11/24 00:18:23;;;;;;;18.47;12.77;;;5.90;99.90;;;6.62;100.00;101201.81;4994268;28;20647;-64
2021/11/24 00:20:51;;;;;;;18.07;13.07;;;5.90;99.90;;;6.75;100.00;101197.63;4994336;28;20298;-64
2021/11/24 00:23:19;;;;;;;19.20;13.30;;;5.90;99.90;;;6.65;100.00;101194.28;4994379;28;20197;-64
2021/11/24 00:25:48;;;;;;;18.63;13.10;;;5.90;99.90;;;6.66;100.00;101193.31;4994528;28;20287;-63
2021/11/24 00:28:16;;;;;;;20.23;14.63;;;5.90;99.90;;;6.73;100.00;101196.94;4994149;28;20667;-64
2021/11/24 00:30:47;;;;;;;17.67;13.33;;;5.90;99.90;;;6.65;100.00;101194.28;4994071;28;20644;-64
2021/11/24 00:33:16;;;;;;;20.03;14.47;;;5.90;99.90;;;6.63;100.00;101190.94;4994040;28;20743;-64
2021/11/24 00:35:45;;;;;;;19.47;14.30;;;5.90;99.90;;;6.84;100.00;101190.41;4993958;28;20282;-64
2021/11/24 00:38:13;;;;;;;18.03;14.03;;;5.90;99.90;;;6.70;100.00;101186.59;4994116;28;20298;-63
2021/11/24 00:40:42;;;;;;;19.17;14.20;;;5.90;99.90;;;6.65;100.00;101194.28;4994947;28;20314;-64
2021/11/24 00:43:10;;;;;;;19.30;13.93;;;5.90;99.90;;;6.70;100.00;101196.44;4993962;28;20246;-64
2021/11/24 00:45:39;;;;;;;19.17;13.53;;;5.90;99.90;;;6.77;100.00;101198.28;4994092;28;20199;-63
2021/11/24 00:48:07;;;;;;;19.13;13.77;;;5.90;99.90;;;6.76;100.00;101191.28;4993688;28;20231;-64
2021/11/24 00:50:37;;;;;;;18.30;13.20;;;5.90;99.90;;;6.86;100.00;101183.06;4993704;28;20207;-64
2021/11/24 00:53:05;;;;;;;18.67;13.57;;;6.00;99.90;;;6.76;100.00;101185.94;4993613;28;20251;-64
2021/11/24 00:55:34;;;;;;;18.40;14.13;;;5.90;99.90;;;6.61;100.00;101187.63;4993843;28;20204;-65
2021/11/24 00:58:02;;;;;;;20.40;14.33;;;5.90;99.90;;;6.65;100.00;101188.94;4993879;28;20281;-64
2021/11/24 01:00:31;;;;;;;20.13;14.73;;;5.90;99.90;;;6.70;100.00;101189.25;4993517;28;20655;-64
2021/11/24 01:02:59;;;;;;;20.33;14.47;;;5.90;99.90;;;6.85;100.00;101202.81;4993641;28;20219;-64
2021/11/24 01:05:29;;;;;;;19.63;15.03;;;5.90;99.90;;;6.92;100.00;101187.72;4993527;28;20212;-65
2021/11/24 01:07:58;;;;;;;21.30;15.50;;;6.00;99.90;;;6.77;100.00;101181.38;4993505;28;20305;-63
2021/11/24 01:10:27;;;;;;;20.43;15.27;;;5.90;99.90;;;6.89;100.00;101180.03;4993320;28;20734;-64
2021/11/24 01:12:56;;;;;;;21.40;15.73;;;6.00;99.90;;;6.90;100.00;101171.81;4993408;28;20220;-64
2021/11/24 01:15:24;;;;;;;20.00;15.00;;;6.00;99.90;;;6.89;100.00;101178.19;4993289;28;20278;-64
2021/11/24 01:17:53;;;;;;;19.83;15.57;;;6.00;99.90;;;6.68;100.00;101161.81;4993416;28;20290;-64
2021/11/24 01:20:22;;;;;;;20.17;15.03;;;6.00;99.90;;;6.73;100.00;101169.38;4993087;28;20258;-64
2021/11/24 01:22:50;;;;;;;22.43;15.00;;;6.00;99.90;;;6.77;100.00;101178.72;4993075;28;20285;-64
2021/11/24 01:25:20;;;;;;;20.23;15.73;;;6.00;99.90;;;6.62;100.00;101172.38;4993361;28;20206;-65
2021/11/24 01:27:48;;;;;;;20.50;15.10;;;5.90;99.90;;;6.55;100.00;101171.38;4992991;28;20219;-64
2021/11/24 01:30:17;;;;;;;20.00;14.93;;;5.90;99.90;;;6.58;100.00;101173.75;4993261;28;20209;-64
2021/11/24 01:32:45;;;;;;;19.57;14.90;;;5.90;99.90;;;6.55;100.00;101163.34;4992922;28;20229;-64
2021/11/24 01:35:13;;;;;;;19.03;14.10;;;5.90;99.90;;;6.50;100.00;101169.22;4993198;28;20290;-64
2021/11/24 01:37:42;;;;;;;19.80;14.87;;;5.90;99.90;;;6.56;100.00;101163.16;4992960;28;20238;-64
2021/11/24 01:40:12;;;;;;;20.33;15.43;;;5.80;99.90;;;6.60;100.00;101163.66;4993048;28;20195;-63
2021/11/24 01:42:43;;;;;;;21.13;14.70;;;5.80;99.90;;;6.52;100.00;101167.22;4993057;28;20571;-64
2021/11/24 01:45:16;;;;;;;20.57;15.27;;;5.80;99.90;;;6.44;100.00;101172.56;4992780;28;20596;-63
2021/11/24 01:47:46;;;;;;;23.67;16.93;;;5.80;99.90;;;6.46;100.00;101159.03;4992437;28;20282;-64
2021/11/24 01:50:15;;;;;;;22.70;16.50;;;5.70;99.90;;;6.48;100.00;101151.66;4992675;28;20294;-63
2021/11/24 01:52:44;;;;;;;24.00;16.17;;;5.80;99.90;;;6.45;100.00;101155.50;4992308;28;20223;-65
2021/11/24 01:55:14;;;;;;;19.17;14.80;;;5.80;99.90;;;6.48;100.00;101160.50;4992562;28;20203;-65
2021/11/24 01:57:48;;;;;;;20.50;14.97;;;5.80;99.90;;;6.59;100.00;101160.19;4992939;28;20290;-64
2021/11/24 02:00:21;;;;;;;21.13;15.63;;;5.80;99.90;;;6.86;100.00;101153.59;4992924;28;20245;-66
2021/11/24 02:02:50;;;;;;;19.73;14.70;;;5.90;99.90;;;6.64;100.00;101160.50;4992814;28;20187;-63
2021/11/24 02:05:19;;;;;;;20.87;14.70;;;5.90;99.90;;;6.57;100.00;101151.47;4992751;28;20206;-65
2021/11/24 02:07:47;;;;;;;18.23;13.57;;;5.90;99.90;;;6.58;100.00;101155.00;4992387;28;20571;-64
2021/11/24 02:10:16;;;;;;;22.73;16.17;;;5.90;99.90;;;6.80;100.00;101156.97;4992633;28;20230;-64
2021/11/24 02:12:47;;;;;;;22.33;15.27;;;5.90;99.90;;;6.71;100.00;101156.16;4992236;28;20310;-64
2021/11/24 02:15:15;;;;;;;21.20;15.47;;;5.90;99.90;;;6.58;100.00;101144.28;4992087;28;20235;-66
2021/11/24 02:17:45;;;;;;;22.17;16.13;;;5.90;99.90;;;6.57;100.00;101143.44;4992526;28;20286;-64
2021/11/24 02:20:17;;;;;;;20.60;16.37;;;5.90;99.90;;;6.44;100.00;101134.25;4992482;28;20203;-64
2021/11/24 02:22:45;;;;;;;21.37;16.20;;;5.80;99.90;;;6.37;100.00;101139.47;4992322;28;20206;-65
2021/11/24 02:25:13;;;;;;;22.20;16.27;;;5.80;99.90;;;6.31;100.00;101133.94;4992452;28;20299;-64
2021/11/24 02:27:42;;;;;;;25.30;18.20;;;5.70;99.90;;;6.31;100.00;101141.97;4992488;28;20298;-66
2021/11/24 02:30:11;;;;;;;24.40;18.27;;;5.60;99.90;;;6.09;100.00;101141.63;4992506;28;20293;-63
2021/11/24 02:32:39;;;;;;;25.53;18.50;;;5.60;99.90;;;6.09;100.00;101132.75;4992294;28;20318;-64
2021/11/24 02:35:08;;;;;;;30.73;19.53;;;5.50;99.90;;;6.06;100.00;101133.09;4992146;28;20209;-63
2021/11/24 02:37:38;;;;;;;23.40;17.03;;;5.40;99.90;;;5.83;100.00;101129.41;4992357;28;20608;-64
2021/11/24 02:40:07;;;;;;;29.57;19.50;;;5.30;99.90;;;6.06;100.00;101123.25;4992457;28;20263;-64
2021/11/24 02:42:38;;;;;;;26.23;18.60;;;5.20;99.90;;;5.81;100.00;101129.53;4992174;28;20262;-64
2021/11/24 02:45:08;;;;;;;27.87;18.80;;;5.20;99.90;;;5.78;100.00;101126.38;4992339;28;20223;-64
2021/11/24 02:47:37;;;;;;;31.00;19.97;;;5.20;99.90;;;5.95;100.00;101122.75;4991990;28;20659;-64
2021/11/24 02:50:08;;;;;;;27.63;18.50;;;5.20;99.90;;;6.02;100.00;101118.41;4992267;28;20199;-65
2021/11/24 02:52:38;;;;;;;28.20;18.80;;;5.20;99.90;;;6.01;100.00;101114.03;4992127;28;20277;-63
2021/11/24 02:55:08;;;;;;;27.73;18.17;;;5.20;99.90;;;5.94;100.00;101121.06;4991916;28;20701;-65
2021/11/24 02:57:41;;;;;;;25.33;17.63;;;5.20;99.90;;;5.90;100.00;101114.38;4992578;28;20199;-63
2021/11/24 03:00:16;;;;;;;25.23;16.97;;;5.20;99.90;;;5.79;100.00;101114.66;4995877;28;20877;-64
2021/11/24 03:02:46;;;;;;;28.50;19.93;;;5.10;99.90;;;5.81;100.00;101109.97;4996149;28;20187;-64
2021/11/24 03:05:18;;;;;;;26.00;18.27;;;5.10;99.90;;;5.83;100.00;101108.88;4995717;28;20590;-64
2021/11/24 03:07:48;;;;;;;28.70;19.50;;;5.10;99.90;;;5.64;100.00;101117.16;4995745;28;20282;-63
2021/11/24 03:10:17;;;;;;;28.57;20.07;;;5.00;99.90;;;5.71;100.00;101110.16;4995859;28;20656;-64
2021/11/24 03:12:46;;;;;;;33.67;21.87;;;5.00;99.90;;;5.90;100.00;101112.53;4995856;28;20226;-64
2021/11/24 03:15:14;;;;;;;32.63;22.33;;;5.00;99.90;;;5.84;100.00;101105.19;4995423;28;20762;-63
2021/11/24 03:17:42;;;;;;;29.60;21.23;;;5.00;99.90;;;5.86;100.00;101097.00;4995369;28;20216;-64
2021/11/24 03:20:14;;;;;;;30.97;20.73;;;5.10;99.90;;;5.84;100.00;101096.31;4995717;28;20783;-63
2021/11/24 03:22:42;;;;;;;26.37;18.93;;;5.10;99.90;;;5.88;100.00;101095.00;4995247;28;20190;-64
2021/11/24 03:27:47;;;;;;;30.83;19.50;;;5.10;99.90;;;5.88;100.00;101084.28;5627213;23;20316;-63
2021/11/24 03:30:20;;;;;;;29.33;18.70;;;5.10;99.90;;;6.05;100.00;101083.28;5013812;28;20249;-64
2021/11/24 03:32:51;;;;;;;30.57;19.77;;;5.20;99.90;;;5.93;100.00;101088.16;5014015;28;20566;-64
2021/11/24 03:35:22;;;;;;;26.40;18.50;;;5.20;99.90;;;5.84;100.00;101083.78;5013857;28;20213;-65
2021/11/24 03:37:52;;;;;;;27.90;18.80;;;5.10;99.90;;;6.01;100.00;101087.31;5013657;28;20187;-64
2021/11/24 03:40:24;;;;;;;26.80;18.77;;;5.20;99.90;;;6.01;100.00;101089.97;5014177;28;20234;-64
2021/11/24 03:42:54;;;;;;;27.20;18.97;;;5.20;99.90;;;5.99;100.00;101086.63;5013954;28;20290;-64
2021/11/24 03:45:27;;;;;;;24.90;18.53;;;5.20;99.90;;;5.94;100.00;101080.94;5013895;28;20295;-64
2021/11/24 03:47:56;;;;;;;27.83;18.00;;;5.20;99.90;;;6.02;100.00;101095.16;5013455;28;20599;-65
2021/11/24 03:50:26;;;;;;;26.17;18.27;;;5.20;99.90;;;6.22;100.00;101076.94;5013573;28;20224;-63
2021/11/24 03:52:54;;;;;;;27.80;18.43;;;5.20;99.90;;;6.12;100.00;101073.59;5013207;28;20237;-64
2021/11/24 03:55:23;;;;;;;27.07;18.57;;;5.30;99.90;;;6.10;100.00;101075.59;5013222;28;20257;-63
2021/11/24 03:57:54;;;;;;;26.67;18.67;;;5.30;99.90;;;6.11;100.00;101075.44;5013497;28;20299;-63
2021/11/24 04:00:25;;;;;;;25.50;18.00;;;5.30;99.90;;;6.16;100.00;101069.56;5013578;28;20196;-64
2021/11/24 04:02:54;;;;;;;27.60;18.70;;;5.30;99.90;;;6.13;100.00;101072.59;5013282;28;20279;-63
2021/11/24 04:05:23;;;;;;;29.77;18.90;;;5.30;99.90;;;6.05;100.00;101084.13;5012978;28;20769;-65
2021/11/24 04:07:52;;;;;;;27.93;20.57;;;5.30;99.90;;;6.12;100.00;101078.97;5013042;28;20289;-63
2021/11/24 04:10:20;;;;;;;26.20;18.67;;;5.30;99.90;;;6.02;100.00;101080.97;5012639;28;20289;-64
2021/11/24 04:12:49;;;;;;;26.27;18.63;;;5.30;99.90;;;5.96;100.00;101070.91;5012859;28;20310;-64
2021/11/24 04:15:21;;;;;;;25.27;18.20;;;5.30;99.90;;;5.93;100.00;101071.25;5013172;28;20313;-64
2021/11/24 04:17:49;;;;;;;27.03;19.03;;;5.30;99.90;;;6.04;100.00;101071.75;5013204;28;20209;-64
2021/11/24 04:20:20;;;;;;;28.37;20.77;;;5.30;99.90;;;6.00;100.00;101062.38;5012871;28;20744;-64
2021/11/24 04:22:49;;;;;;;32.50;22.67;;;5.30;99.90;;;6.03;100.00;101074.59;5012513;28;20218;-63
2021/11/24 04:25:18;;;;;;;26.80;19.77;;;5.30;99.90;;;6.10;100.00;101070.25;5013207;28;20298;-63
2021/11/24 04:27:47;;;;;;;31.33;21.87;;;5.30;99.90;;;6.22;100.00;101064.38;5012789;28;20779;-64
2021/11/24 04:30:19;;;;;;;28.37;18.87;;;5.30;99.90;;;6.23;100.00;101065.22;5012875;28;20374;-64
2021/11/24 04:32:47;;;;;;;31.17;19.47;;;5.30;99.90;;;6.14;100.00;101061.72;5013156;28;20617;-64
2021/11/24 04:35:16;;;;;;;28.30;19.83;;;5.30;99.90;;;6.05;100.00;101070.75;5012592;28;20670;-64
2021/11/24 04:37:44;;;;;;;27.73;19.20;;;5.30;99.90;;;6.17;100.00;101069.41;5012201;28;20293;-64
2021/11/24 04:40:14;;;;;;;30.63;19.20;;;5.30;99.90;;;6.19;100.00;101059.38;5013091;28;20309;-64
2021/11/24 04:42:43;;;;;;;25.53;18.33;;;5.40;99.90;;;6.07;100.00;101063.38;5012689;28;20298;-64
2021/11/24 04:45:12;;;;;;;28.07;19.33;;;5.30;99.90;;;6.09;100.00;101060.53;5012529;28;20682;-65
2021/11/24 04:47:42;;;;;;;29.47;19.10;;;5.30;99.90;;;6.26;100.00;101051.50;5012436;28;20214;-64
2021/11/24 04:50:12;;;;;;;24.93;17.87;;;5.30;99.90;;;6.13;100.00;101051.19;5012791;28;20202;-63
2021/11/24 04:52:40;;;;;;;30.03;19.10;;;5.30;99.90;;;6.13;100.00;101051.19;5012314;28;20222;-64
2021/11/24 04:55:10;;;;;;;27.63;17.97;;;5.30;99.90;;;6.06;100.00;101050.19;5012549;28;20219;-64
2021/11/24 04:57:38;;;;;;;27.20;18.83;;;5.30;99.90;;;6.02;100.00;101047.00;5012195;28;20576;-64
2021/11/24 05:00:15;;;;;;;29.37;20.83;;;5.30;99.90;;;6.00;100.00;101045.53;5012442;28;20687;-66
2021/11/24 05:02:45;;;;;;;29.63;20.70;;;5.30;99.90;;;6.05;100.00;101044.00;5012098;28;20274;-63
2021/11/24 05:05:14;;;;;;;27.10;19.90;;;5.30;99.90;;;5.99;100.00;101049.19;5012408;28;20186;-64
2021/11/24 05:07:42;;;;;;;33.17;20.77;;;5.30;99.90;;;6.02;100.00;101051.56;5011739;28;20695;-64
2021/11/24 05:10:11;;;;;;;31.20;21.90;;;5.30;99.90;;;6.10;100.00;101048.84;5012005;28;20333;-64
2021/11/24 05:12:39;;;;;;;31.20;21.30;;;5.30;99.90;;;6.16;100.00;101048.16;5012115;28;20639;-64
2021/11/24 05:15:12;;;;;;;31.13;20.67;;;5.30;99.90;;;6.21;100.00;101045.81;5012099;28;20292;-64
2021/11/24 05:17:43;;;;;;;30.23;20.03;;;5.40;99.90;;;6.24;100.00;101047.34;5011973;28;20201;-63
2021/11/24 05:20:16;;;;;;;28.93;20.17;;;5.40;99.90;;;6.14;100.00;101045.66;5012433;28;20195;-64
2021/11/24 05:22:45;;;;;;;28.27;20.57;;;5.40;99.90;;;6.27;100.00;101047.00;5010606;28;20736;-64
2021/11/24 05:25:13;;;;;;;28.47;19.93;;;5.40;99.90;;;6.37;100.00;101051.16;5011909;28;20639;-64
2021/11/24 05:27:42;;;;;;;28.63;20.60;;;5.50;99.90;;;6.33;100.00;101047.16;5011657;28;20274;-64
2021/11/24 05:30:12;;;;;;;31.90;21.43;;;5.50;99.90;;;6.29;100.00;101053.00;5011903;28;20404;-63
2021/11/24 05:32:40;;;;;;;29.70;20.47;;;5.50;99.90;;;6.25;100.00;101049.00;5011441;28;20242;-64
2021/11/24 05:35:09;;;;;;;29.00;20.17;;;5.50;99.90;;;6.16;100.00;101051.69;5011292;28;20709;-63
2021/11/24 05:37:39;;;;;;;30.17;21.17;;;5.50;99.90;;;6.13;100.00;101045.84;5011482;28;20238;-64
2021/11/24 05:40:08;;;;;;;29.73;22.23;;;5.40;99.90;;;6.15;100.00;101050.03;5011362;28;20206;-64
2021/11/24 05:42:38;;;;;;;31.00;22.07;;;5.40;99.90;;;6.15;100.00;101052.72;5011608;28;20213;-64
2021/11/24 05:45:14;;;;;;;32.20;22.87;;;5.40;99.90;;;6.12;100.00;101050.34;5011617;28;20240;-64
2021/11/24 05:47:57;;;;;;;26.53;18.17;;;5.40;99.90;;;6.12;100.00;101055.69;5011477;28;20664;-64
2021/11/24 05:50:43;;;;;;;29.50;18.57;;;5.40;99.90;;;6.19;100.00;101053.19;5011456;28;20212;-64
2021/11/24 05:53:14;;;;;;;31.83;18.33;;;5.40;99.90;;;6.20;100.00;101044.16;5011563;28;20545;-63
2021/11/24 05:55:43;;;;;;;25.77;17.63;;;5.40;99.90;;;6.19;100.00;101042.47;5011153;28;20626;-63
2021/11/24 05:58:13;;;;;;;29.93;20.53;;;5.40;99.90;;;6.08;100.00;101051.72;5011547;28;20703;-63
2021/11/24 06:00:42;;;;;;;30.40;20.10;;;5.40;99.90;;;6.11;100.00;101050.50;5012068;28;20236;-64
2021/11/24 06:03:10;;;;;;;30.37;19.93;;;5.40;99.90;;;6.30;100.00;101047.50;5012184;28;20202;-64
2021/11/24 06:05:39;;;;;;;28.93;18.60;;;5.40;99.90;;;6.16;100.00;101048.16;5012086;28;20286;-64
2021/11/24 06:08:07;;;;;;;28.77;19.40;;;5.40;99.90;;;6.09;100.00;101041.81;5011853;28;20577;-64
2021/11/24 06:10:37;;;;;;;33.07;20.40;;;5.40;99.90;;;6.10;100.00;101047.03;5011948;28;20289;-65
2021/11/24 06:13:05;;;;;;;30.20;20.73;;;5.40;99.90;;;6.13;100.00;101043.16;5011675;28;20249;-64
2021/11/24 06:15:34;;;;;;;32.87;21.00;;;5.30;99.90;;;6.21;100.00;101043.16;5011892;28;20233;-64
2021/11/24 06:18:03;;;;;;;29.23;20.33;;;5.40;99.90;;;6.16;100.00;101041.00;5011769;28;20290;-65
2021/11/24 06:20:32;;;;;;;30.73;20.50;;;5.40;99.90;;;6.11;100.00;101047.84;5011950;28;20245;-65
2021/11/24 06:23:00;;;;;;;32.40;21.73;;;5.40;99.90;;;6.13;100.00;101037.81;5011196;28;20213;-64
2021/11/24 06:25:29;;;;;;;28.93;19.80;;;5.40;99.90;;;6.22;100.00;101038.63;5011482;28;20187;-64
2021/11/24 06:27:58;;;;;;;29.03;20.40;;;5.40;99.90;;;6.36;100.00;101043.31;5011453;28;20325;-64
2021/11/24 06:30:27;;;;;;;30.03;20.67;;;5.40;99.90;;;6.26;100.00;101030.09;5012001;28;20263;-63
2021/11/24 06:32:55;;;;;;;31.50;21.87;;;5.40;99.90;;;6.24;100.00;101037.44;5012958;28;20199;-64
2021/11/24 06:35:24;;;;;;;31.47;21.10;;;5.50;99.90;;;6.25;100.00;101041.81;5018277;28;20313;-64
2021/11/24 06:37:52;;;;;;;34.73;23.70;;;5.50;99.90;;;6.19;100.00;101043.31;5017893;28;20286;-62
2021/11/24 06:40:20;;;;;;;34.97;24.30;;;5.40;99.90;;;6.27;100.00;101037.13;5018400;28;20207;-65
2021/11/24 06:42:49;;;;;;;34.67;25.23;;;5.50;99.90;;;6.22;100.00;101041.31;5018217;28;20706;-64
2021/11/24 06:45:20;;;;;;;44.20;31.67;;;5.50;99.90;;;6.19;100.00;101043.31;5018270;28;20281;-65
2021/11/24 06:47:48;;;;;;;46.13;31.70;;;5.50;99.90;;;6.27;100.00;101037.13;5018105;28;20218;-64
2021/11/24 06:50:17;;;;;;;39.97;28.03;;;5.50;99.90;;;6.28;100.00;101036.13;5018164;28;20202;-64
2021/11/24 06:52:45;;;;;;;42.80;29.53;;;5.50;99.90;;;6.34;100.00;101038.13;5018047;28;20209;-63
2021/11/24 06:55:14;;;;;;;40.13;27.73;;;5.50;99.90;;;6.34;100.00;101040.81;5018000;28;20316;-63
2021/11/24 06:57:42;;;;;;;33.77;23.60;;;5.60;99.90;;;6.37;100.00;101039.63;5018385;28;20201;-64
2021/11/24 07:00:12;;;;;;;35.27;24.93;;;5.60;99.90;;;6.28;100.00;101041.47;5018164;28;20241;-63
2021/11/24 07:02:42;;;;;;;33.70;24.30;;;5.50;99.90;;;6.34;100.00;101034.59;5018179;28;20292;-64
2021/11/24 07:05:12;;;;;;;35.07;23.50;;;5.60;99.90;;;6.38;100.00;101036.75;5017899;28;20568;-64
2021/11/24 07:07:41;;;;;;;33.10;23.70;;;5.60;99.90;;;6.37;100.00;101040.44;5017527;28;20286;-65
2021/11/24 07:10:10;;;;;;;34.23;22.23;;;5.60;99.90;;;6.42;100.00;101035.41;5017922;28;20297;-65
2021/11/24 07:12:38;;;;;;;33.87;22.27;;;5.60;99.90;;;6.45;100.00;101037.75;5017746;28;20689;-65
2021/11/24 07:15:08;;;;;;;31.87;20.20;;;5.60;99.90;;;6.45;100.00;101039.59;5018444;28;20223;-65
2021/11/24 07:17:37;;;;;;;36.00;23.23;;;5.70;99.90;;;6.54;100.00;101041.25;5019952;28;20263;-65
2021/11/24 07:20:08;;;;;;;37.17;25.23;;;5.70;99.90;;;6.54;100.00;101041.25;5018876;28;20797;-65
2021/11/24 07:22:37;;;;;;;43.87;33.10;;;5.80;99.90;;;6.55;100.00;101045.56;5018944;28;20217;-64
2021/11/24 07:25:08;;;;;;;41.03;27.50;;;5.80;99.90;;;6.57;100.00;101041.72;5018363;28;20669;-64
2021/11/24 07:27:37;;;;;;;35.63;25.03;;;5.80;99.90;;;6.59;100.00;101041.56;5018134;28;20234;-65
2021/11/24 07:30:08;;;;;;;30.63;20.53;;;5.80;99.90;;;6.77;100.00;101040.31;5018368;28;20586;-65
2021/11/24 07:32:37;;;;;;;32.80;22.83;;;5.80;99.90;;;6.78;100.00;101044.66;5017930;28;20270;-66
2021/11/24 07:35:08;;;;;;;37.00;26.07;;;5.90;99.90;;;6.89;100.00;101038.94;5017712;28;20210;-65
2021/11/24 07:37:36;;;;;;;33.03;23.30;;;5.90;99.90;;;6.89;100.00;101032.72;5017515;28;20278;-63
2021/11/24 07:40:08;;;;;;;34.00;24.30;;;6.00;99.90;;;6.91;100.00;101031.56;5017775;28;20301;-63
2021/11/24 07:42:37;;;;;;;32.20;23.00;;;6.00;99.90;;;6.89;100.00;101036.25;5017854;28;20195;-64
2021/11/24 07:45:07;;;;;;;33.90;24.07;;;6.00;99.90;;;6.90;100.00;101031.75;5014247;28;20199;-65
2021/11/24 07:47:36;;;;;;;31.67;21.37;;;6.00;99.90;;;7.06;100.00;101037.84;5014314;28;20219;-64
2021/11/24 07:50:07;;;;;;;29.90;20.27;;;6.10;99.90;;;7.00;100.00;101037.72;5014409;28;20282;-63
2021/11/24 07:52:36;;;;;;;29.27;20.40;;;6.10;99.90;;;7.08;100.00;101032.31;5014400;28;20214;-63
2021/11/24 07:55:06;;;;;;;31.30;22.50;;;6.20;99.90;;;7.03;100.00;101026.66;5014115;28;20227;-63
2021/11/24 07:57:34;;;;;;;32.30;21.70;;;6.20;99.90;;;7.09;100.00;101033.97;5014311;28;20234;-63
2021/11/24 08:00:03;;;;;;;48.73;36.50;;;6.10;99.90;;;7.09;100.00;101031.28;5014238;28;20242;-63
2021/11/24 08:02:31;;;;;;;29.47;19.90;;;6.20;99.90;;;7.09;100.00;101032.13;5014044;28;20203;-63
2021/11/24 08:05:03;;;;;;;26.40;19.40;;;6.20;99.90;;;7.12;100.00;101029.09;5013273;28;20294;-63
2021/11/24 08:07:52;;;;;;;26.87;19.40;;;6.20;99.90;;;7.07;100.00;101022.63;5010108;28;20665;-61
2021/11/24 08:10:21;;;;;;;28.20;20.47;;;6.20;99.90;;;7.10;100.00;101024.94;5010610;28;20202;-62
2021/11/24 08:12:50;;;;;;;30.73;21.10;;;6.20;99.90;;;7.04;100.00;101014.91;5010095;28;21172;-61
2021/11/24 08:15:19;;;;;;;29.43;20.67;;;6.20;99.90;;;7.16;100.00;101021.53;5011213;28;20614;-62
2021/11/24 08:17:47;;;;;;;27.83;19.87;;;6.30;99.90;;;7.16;100.00;101010.81;5011689;28;20598;-64
2021/11/24 08:20:16;;;;;;;30.20;20.50;;;6.30;99.90;;;7.19;100.00;101007.78;5012019;28;20241;-64
2021/11/24 08:22:44;;;;;;;28.33;20.07;;;6.30;99.90;;;7.30;100.00;101007.41;5011673;28;20186;-64
2021/11/24 08:25:14;;;;;;;28.07;19.43;;;6.40;99.90;;;7.40;100.00;101011.53;5012228;28;20206;-72
2021/11/24 08:27:43;;;;;;;30.13;19.80;;;6.50;99.90;;;7.37;100.00;101011.03;5011678;28;20238;-70
2021/11/24 08:30:13;;;;;;;27.67;20.47;;;6.50;99.90;;;7.48;100.00;101010.63;5012294;28;20203;-70
2021/11/24 08:32:42;;;;;;;27.17;19.90;;;6.50;99.90;;;7.59;100.00;101012.03;5011842;28;20198;-69
2021/11/24 08:35:11;;;;;;;27.50;18.73;;;6.60;99.90;;;7.65;100.00;101008.63;5011742;28;20286;-63
2021/11/24 08:37:39;;;;;;;26.10;18.73;;;6.60;99.90;;;7.68;100.00;101011.78;5010716;28;20314;-60
2021/11/24 08:40:10;;;;;;;27.53;17.67;;;6.80;99.90;;;7.70;100.00;101007.09;5011322;28;20608;-62
2021/11/24 08:42:40;;;;;;;25.17;17.43;;;6.70;99.90;;;7.82;100.00;101005.66;5011220;28;20274;-64
2021/11/24 08:45:10;;;;;;;25.73;17.30;;;6.70;99.90;;;7.90;100.00;101010.13;5011441;28;20282;-64
2021/11/24 08:47:40;;;;;;;26.57;18.77;;;6.80;99.90;;;7.85;100.00;101007.13;5010931;28;20326;-61
2021/11/24 08:50:12;;;;;;;26.70;18.37;;;6.80;99.90;;;7.86;100.00;101004.28;5011286;28;20278;-61
2021/11/24 08:52:41;;;;;;;25.57;17.13;;;6.90;99.90;;;7.91;100.00;101006.41;5010571;28;20246;-61
2021/11/24 08:55:11;;;;;;;25.97;18.37;;;6.90;99.90;;;7.97;100.00;101005.69;5011083;28;20221;-63
2021/11/24 08:57:41;;;;;;;28.53;18.90;;;7.00;99.90;;;8.06;100.00;101001.91;5010743;28;20222;-60
2021/11/24 09:00:14;;;;;;;25.63;18.63;;;7.00;99.90;;;8.12;100.00;101006.53;5011335;28;20209;-62
2021/11/24 09:02:43;;;;;;;26.57;17.90;;;7.10;99.90;;;8.07;100.00;100996.34;5010925;28;20214;-61
2021/11/24 09:05:13;;;;;;;28.37;18.07;;;7.10;99.90;;;8.15;100.00;100993.59;5011226;28;20575;-62
2021/11/24 09:07:43;;;;;;;28.10;19.83;;;7.20;99.90;;;8.21;100.00;101000.06;5010380;28;20205;-60
2021/11/24 09:10:11;;;;;;;25.77;18.93;;;7.20;99.90;;;8.17;100.00;100996.06;5010877;28;20293;-64
2021/11/24 09:12:42;;;;;;;26.93;18.93;;;7.20;99.90;;;8.35;100.00;100993.94;5010520;28;20269;-65
2021/11/24 09:15:10;;;;;;;22.90;16.97;;;7.20;99.90;;;8.54;100.00;100999.56;5010073;28;20273;-61
2021/11/24 09:17:59;;;;;;;23.53;17.07;;;7.30;99.90;;;8.51;100.00;100991.88;5010031;28;20231;-66
2021/11/24 09:20:27;;;;;;;27.50;18.87;;;7.40;99.90;;;8.45;100.00;100986.44;5010505;28;20214;-64
2021/11/24 09:22:56;;;;;;;27.33;17.63;;;7.50;99.90;;;8.51;100.00;100986.50;5010224;28;20285;-64
2021/11/24 09:25:35;;;;;;;25.83;18.07;;;7.50;99.90;;;8.52;100.00;100987.34;5010100;28;20678;-60
2021/11/24 09:28:11;;;;;;;25.10;17.30;;;7.50;99.90;;;8.73;100.00;100976.66;5009829;28;20317;-60
2021/11/24 09:30:42;;;;;;;24.07;17.17;;;7.60;99.90;;;8.67;100.00;100980.13;5010359;28;20595;-60
2021/11/24 09:33:11;;;;;;;24.00;17.17;;;7.60;99.90;;;8.58;100.00;100979.38;5009863;28;20187;-65
2021/11/24 09:35:39;;;;;;;24.10;16.50;;;7.60;99.90;;;8.55;100.00;100981.59;5009979;28;20211;-64
2021/11/24 09:38:08;;;;;;;23.70;17.20;;;7.60;99.90;;;8.69;100.00;100974.56;5009678;28;20774;-65
2021/11/24 09:40:37;;;;;;;23.63;17.57;;;7.70;99.90;;;8.77;100.00;100977.97;5010103;28;20306;-63
2021/11/24 09:43:11;;;;;;;31.57;22.33;;;7.70;99.90;;;8.77;100.00;100969.91;5009912;28;20261;-63
2021/11/24 09:45:43;;;;;;;23.63;17.07;;;7.60;99.90;;;8.81;100.00;100968.50;5010085;28;20274;-64
2021/11/24 09:48:16;;;;;;;26.00;18.20;;;7.70;99.90;;;8.79;100.00;100975.09;5009650;28;20227;-63
2021/11/24 09:50:47;;;;;;;23.57;16.37;;;7.70;99.90;;;8.86;100.00;100966.09;5009923;28;20275;-63
2021/11/24 09:53:18;;;;;;;23.23;16.33;;;7.80;99.90;;;8.65;100.00;100963.34;5009586;28;20215;-64
2021/11/24 09:55:46;;;;;;;22.23;16.23;;;7.70;99.90;;;8.65;100.00;100966.03;5009789;28;20203;-63
2021/11/24 09:58:16;;;;;;;24.10;16.67;;;7.70;99.90;;;8.75;100.00;100968.41;5009509;28;20796;-64
2021/11/24 10:00:46;;;;;;;21.90;15.83;;;7.80;99.90;;;8.88;100.00;100958.66;5009499;28;20294;-64
2021/11/24 10:03:15;;;;;;;23.77;17.10;;;7.80;99.90;;;8.92;100.00;100951.91;5009614;28;20261;-64
2021/11/24 10:05:46;;;;;;;24.10;17.33;;;7.80;99.90;;;9.03;100.00;100946.03;5009785;28;20217;-64
2021/11/24 10:08:32;;;;;;;25.27;17.37;;;7.80;99.90;;;8.97;100.00;100937.88;5008609;28;20610;-64
2021/11/24 10:11:02;;;;;;;24.50;17.17;;;7.90;99.90;;;9.11;100.00;100937.84;5009665;28;20198;-66
2021/11/24 10:13:31;;;;;;;24.10;16.50;;;8.00;99.90;;;9.10;100.00;100940.75;5009485;28;20188;-66
2021/11/24 10:16:01;;;;;;;26.10;16.40;;;8.00;99.90;;;9.12;100.00;100934.13;5009001;28;20249;-64
2021/11/24 10:18:32;;;;;;;22.53;16.10;;;8.10;99.90;;;9.07;100.00;100936.56;5009143;28;20215;-64